createdAt,value
2022-09-10T00:00:16.629Z,43.62
2022-09-10T00:05:23.830Z,43.78
2022-09-10T00:10:31.001Z,43.75
2022-09-10T00:15:38.193Z,43.80
2022-09-10T00:20:45.387Z,43.89
2022-09-10T00:25:52.563Z,44.00
2022-09-10T00:30:59.790Z,44.09
2022-09-10T00:36:06.954Z,44.20
2022-09-10T00:41:14.146Z,44.24
2022-09-10T00:46:21.416Z,44.23
2022-09-10T00:51:28.613Z,44.34
2022-09-10T00:56:35.795Z,44.48
2022-09-10T01:01:43.113Z,44.56
2022-09-10T01:06:50.264Z,44.63
2022-09-10T01:11:57.437Z,44.80
2022-09-10T01:17:04.613Z,44.83
2022-09-10T01:22:11.904Z,44.96
2022-09-10T01:27:19.088Z,45.02
2022-09-10T01:32:26.279Z,45.04
2022-09-10T01:37:33.490Z,45.16
2022-09-10T01:42:40.636Z,45.24
2022-09-10T01:47:47.858Z,45.29
2022-09-10T01:52:55.020Z,45.29
2022-09-10T01:58:02.215Z,45.36
2022-09-10T02:03:09.385Z,45.40
2022-09-10T02:08:16.596Z,45.47
2022-09-10T02:13:23.786Z,45.48
2022-09-10T02:18:31.079Z,45.51
2022-09-10T02:23:38.287Z,45.55
2022-09-10T02:28:45.501Z,45.53
2022-09-10T02:33:52.739Z,45.52
2022-09-10T02:38:59.961Z,45.52
2022-09-10T02:44:07.186Z,45.55
2022-09-10T02:49:14.358Z,45.57
2022-09-10T02:54:21.568Z,45.54
2022-09-10T02:59:28.733Z,45.40
2022-09-10T03:04:35.890Z,45.25
2022-09-10T03:09:43.116Z,45.24
2022-09-10T03:14:50.285Z,45.03
2022-09-10T03:19:57.459Z,45.01
2022-09-10T03:25:04.680Z,45.20
2022-09-10T03:30:11.871Z,45.23
2022-09-10T03:35:19.114Z,45.21
2022-09-10T03:40:26.317Z,45.35
2022-09-10T03:45:33.634Z,45.50
2022-09-10T03:50:40.791Z,45.50
2022-09-10T03:55:48.501Z,45.52
2022-09-10T04:00:55.794Z,45.67
2022-09-10T04:06:03.022Z,45.72
2022-09-10T04:11:10.256Z,45.68
2022-09-10T04:16:17.468Z,45.68
2022-09-10T04:21:24.608Z,45.67
2022-09-10T04:26:31.851Z,45.68
2022-09-10T04:31:39.095Z,45.69
2022-09-10T04:36:46.240Z,45.65
2022-09-10T04:41:53.648Z,45.65
2022-09-10T04:47:00.799Z,45.70
2022-09-10T04:52:07.994Z,45.70
2022-09-10T04:57:15.193Z,45.73
2022-09-10T05:02:22.448Z,45.81
2022-09-10T05:07:29.550Z,45.76
2022-09-10T05:12:36.754Z,45.79
2022-09-10T05:17:44.531Z,45.75
2022-09-10T05:22:51.775Z,45.71
2022-09-10T05:27:59.015Z,45.66
2022-09-10T05:33:07.217Z,45.66
2022-09-10T05:38:13.476Z,45.69
2022-09-10T05:43:20.679Z,45.67
2022-09-10T05:48:27.831Z,45.69
2022-09-10T05:53:35.033Z,45.72
2022-09-10T05:58:42.249Z,45.75
2022-09-10T06:03:49.445Z,45.72
2022-09-10T06:08:56.685Z,45.75
2022-09-10T06:14:03.894Z,45.72
2022-09-10T06:19:11.045Z,45.77
2022-09-10T06:24:18.219Z,45.74
2022-09-10T06:29:25.431Z,45.67
2022-09-10T06:34:32.637Z,45.63
2022-09-10T06:39:39.839Z,45.55
2022-09-10T06:44:47.037Z,45.42
2022-09-10T06:49:54.153Z,45.50
2022-09-10T06:55:01.338Z,45.40
2022-09-10T07:00:08.586Z,45.37
2022-09-10T07:05:15.744Z,45.40
2022-09-10T07:10:22.904Z,45.47
2022-09-10T07:15:30.233Z,45.47
2022-09-10T07:20:37.389Z,45.56
2022-09-10T07:25:44.563Z,45.64
2022-09-10T07:30:51.903Z,45.49
2022-09-10T07:35:59.005Z,45.52
2022-09-10T07:41:06.328Z,45.52
2022-09-10T07:46:13.645Z,45.47
2022-09-10T07:51:21.059Z,45.72
2022-09-10T07:56:28.307Z,46.12
2022-09-10T08:01:35.670Z,46.14
2022-09-10T08:06:42.765Z,46.09
2022-09-10T08:11:49.995Z,45.72
2022-09-10T08:16:57.250Z,45.64
2022-09-10T08:22:04.501Z,45.55
2022-09-10T08:27:11.715Z,45.41
2022-09-10T08:32:18.981Z,45.27
2022-09-10T08:37:26.171Z,45.20
2022-09-10T08:42:33.325Z,45.07
2022-09-10T08:47:40.531Z,44.97
2022-09-10T08:52:47.697Z,44.81
2022-09-10T08:57:54.886Z,44.73
2022-09-10T09:03:02.138Z,44.61
2022-09-10T09:08:09.327Z,45.19
2022-09-10T09:13:16.516Z,45.00
2022-09-10T09:18:23.706Z,44.93
2022-09-10T09:23:30.865Z,44.89
2022-09-10T09:28:38.095Z,44.54
2022-09-10T09:33:45.253Z,44.70
2022-09-10T09:38:52.442Z,44.45
2022-09-10T09:43:59.640Z,44.40
2022-09-10T09:49:06.831Z,44.49
2022-09-10T09:54:46.755Z,44.57
2022-09-10T09:59:21.253Z,44.50
2022-09-10T10:04:28.530Z,44.41
2022-09-10T10:09:35.663Z,44.37
2022-09-10T10:14:42.879Z,44.84
2022-09-10T10:19:50.036Z,45.06
2022-09-10T10:24:57.182Z,45.27
2022-09-10T10:30:04.352Z,45.42
2022-09-10T10:35:11.612Z,45.38
2022-09-10T10:40:18.824Z,45.41
2022-09-10T10:45:26.072Z,45.38
2022-09-10T10:50:33.305Z,45.42
2022-09-10T10:55:40.527Z,45.40
2022-09-10T11:00:47.746Z,45.50
2022-09-10T11:05:54.975Z,45.43
2022-09-10T11:11:02.233Z,45.50
2022-09-10T11:16:09.479Z,45.49
2022-09-10T11:21:16.665Z,45.47
2022-09-10T11:26:23.838Z,45.29
2022-09-10T11:31:31.047Z,45.08
2022-09-10T11:36:38.305Z,44.95
2022-09-10T11:41:45.470Z,44.84
2022-09-10T11:46:52.704Z,44.53
2022-09-10T11:51:59.910Z,44.59
2022-09-10T11:57:07.146Z,44.67
2022-09-10T12:02:14.386Z,44.55
2022-09-10T12:07:21.633Z,43.91
2022-09-10T12:12:28.800Z,44.35
2022-09-10T12:17:36.024Z,43.60
2022-09-10T12:22:43.273Z,43.24
2022-09-10T12:27:50.425Z,43.22
2022-09-10T12:32:57.759Z,43.52
2022-09-10T12:38:05.045Z,43.37
2022-09-10T12:43:12.225Z,43.42
2022-09-10T12:48:21.971Z,43.58
2022-09-10T12:53:26.733Z,43.43
2022-09-10T12:58:33.937Z,43.69
2022-09-10T13:03:41.288Z,43.69
2022-09-10T13:08:48.427Z,43.59
2022-09-10T13:13:55.570Z,43.72
2022-09-10T13:19:02.751Z,44.07
2022-09-10T13:24:09.992Z,44.16
2022-09-10T13:29:17.165Z,43.72
2022-09-10T13:34:24.426Z,43.25
2022-09-10T13:39:31.708Z,43.78
2022-09-10T13:44:38.893Z,43.92
2022-09-10T13:49:46.139Z,44.66
2022-09-10T13:54:53.454Z,45.18
2022-09-10T14:00:00.788Z,45.05
2022-09-10T14:05:07.854Z,45.11
2022-09-10T14:10:15.076Z,44.70
2022-09-10T14:15:22.318Z,44.48
2022-09-10T14:20:29.515Z,44.14
2022-09-10T14:25:36.752Z,44.09
2022-09-10T14:30:43.944Z,44.11
2022-09-10T14:35:51.115Z,44.02
2022-09-10T14:40:58.625Z,44.01
2022-09-10T14:46:05.896Z,43.41
2022-09-10T14:51:12.987Z,43.05
2022-09-10T14:56:20.191Z,43.28
2022-09-10T15:01:27.435Z,42.73
2022-09-10T15:06:34.561Z,42.84
2022-09-10T15:11:41.802Z,43.22
2022-09-10T15:16:48.976Z,42.95
2022-09-10T15:21:56.188Z,42.62
2022-09-10T15:27:03.382Z,43.21
2022-09-10T15:32:10.575Z,42.91
2022-09-10T15:37:17.821Z,43.40
2022-09-10T15:42:25.089Z,42.64
2022-09-10T15:47:32.276Z,43.40
2022-09-10T15:52:39.511Z,43.57
2022-09-10T15:57:46.748Z,44.19
2022-09-10T16:02:54.090Z,43.73
2022-09-10T16:08:01.130Z,44.18
2022-09-10T16:13:08.451Z,43.46
2022-09-10T16:18:15.667Z,43.91
2022-09-10T16:23:22.842Z,44.29
2022-09-10T16:28:30.297Z,44.79
2022-09-10T16:33:37.490Z,44.85
2022-09-10T16:38:44.723Z,45.29
2022-09-10T16:43:51.984Z,45.98
2022-09-10T16:48:59.171Z,46.19
2022-09-10T16:54:06.415Z,46.46
2022-09-10T16:59:13.607Z,46.40
2022-09-10T17:04:25.957Z,46.30
2022-09-10T17:09:28.024Z,46.69
2022-09-10T17:14:35.256Z,46.60
2022-09-10T17:19:42.509Z,46.77
2022-09-10T17:24:49.715Z,46.52
2022-09-10T17:29:56.931Z,46.63
2022-09-10T17:35:04.073Z,46.24
2022-09-10T17:40:11.270Z,46.39
2022-09-10T17:45:18.461Z,45.82
2022-09-10T17:50:25.624Z,45.71
2022-09-10T17:55:33.771Z,45.17
2022-09-10T18:00:40.062Z,45.06
2022-09-10T18:05:47.309Z,45.25
2022-09-10T18:10:54.491Z,45.55
2022-09-10T18:16:02.950Z,45.78
2022-09-10T18:21:10.398Z,46.22
2022-09-10T18:26:18.007Z,46.02
2022-09-10T18:31:25.399Z,46.20
2022-09-10T18:36:32.623Z,46.49
2022-09-10T18:41:40.237Z,46.77
2022-09-10T18:46:47.631Z,46.86
2022-09-10T18:51:54.955Z,46.89
2022-09-10T18:57:02.563Z,46.35
2022-09-10T19:02:10.199Z,46.44
2022-09-10T19:07:17.696Z,45.98
2022-09-10T19:12:25.011Z,45.77
2022-09-10T19:17:32.638Z,45.41
2022-09-10T19:22:39.896Z,45.42
2022-09-10T19:27:47.639Z,45.38
2022-09-10T19:32:55.277Z,45.28
2022-09-10T19:38:15.803Z,45.16
2022-09-10T19:43:10.272Z,45.15
2022-09-10T19:48:17.812Z,45.01
2022-09-10T19:53:25.301Z,44.75
2022-09-10T19:58:33.836Z,44.83
2022-09-10T20:03:41.082Z,44.24
2022-09-10T20:08:48.561Z,43.85
2022-09-10T20:13:56.165Z,43.80
2022-09-10T20:19:03.572Z,43.96
2022-09-10T20:24:10.813Z,43.84
2022-09-10T20:29:17.986Z,43.71
2022-09-10T20:34:25.205Z,43.71
2022-09-10T20:39:32.389Z,43.49
2022-09-10T20:44:39.577Z,43.50
2022-09-10T20:49:46.806Z,43.26
2022-09-10T20:54:53.983Z,43.33
2022-09-10T21:00:01.172Z,43.10
2022-09-10T21:05:08.462Z,42.89
2022-09-10T21:10:15.636Z,43.01
2022-09-10T21:15:22.822Z,42.90
2022-09-10T21:20:30.056Z,42.94
2022-09-10T21:25:37.292Z,42.80
2022-09-10T21:30:44.498Z,42.74
2022-09-10T21:35:51.672Z,42.60
2022-09-10T21:40:58.877Z,42.45
2022-09-10T21:46:06.129Z,42.49
2022-09-10T21:51:13.300Z,42.63
2022-09-10T21:56:20.474Z,42.39
2022-09-10T22:01:27.816Z,42.23
2022-09-10T22:06:34.922Z,42.31
2022-09-10T22:11:42.085Z,42.45
2022-09-10T22:16:49.294Z,42.45
2022-09-10T22:21:56.533Z,42.28
2022-09-10T22:27:03.749Z,42.52
2022-09-10T22:32:10.901Z,42.54
2022-09-10T22:37:18.127Z,42.53
2022-09-10T22:42:25.277Z,42.43
2022-09-10T22:47:32.512Z,42.41
2022-09-10T22:52:39.740Z,42.35
2022-09-10T22:57:46.885Z,42.70
2022-09-10T23:02:54.128Z,42.58
2022-09-10T23:08:01.366Z,42.21
2022-09-10T23:13:08.567Z,42.29
2022-09-10T23:18:15.742Z,42.39
2022-09-10T23:23:22.975Z,42.36
2022-09-10T23:28:30.115Z,42.23
2022-09-10T23:33:37.359Z,42.27
2022-09-10T23:38:44.576Z,42.48
2022-09-10T23:43:51.760Z,42.57
2022-09-10T23:48:58.982Z,42.65
2022-09-10T23:54:06.176Z,42.69
2022-09-10T23:59:13.383Z,42.84
